createdAt,value
2018-04-17T00:00:57.386Z,100724.45
2018-04-17T00:02:03.923Z,100725.88
2018-04-17T00:03:09.694Z,100726.84
2018-04-17T00:04:16.233Z,100723.42
2018-04-17T00:05:22.024Z,100720.83
2018-04-17T00:06:27.798Z,100722.64
2018-04-17T00:07:33.569Z,100721.36
2018-04-17T00:08:39.339Z,100724.07
2018-04-17T00:09:45.099Z,100723.30
2018-04-17T00:10:50.903Z,100720.80
2018-04-17T00:11:57.450Z,100724.36
2018-04-17T00:13:03.203Z,100721.77
2018-04-17T00:14:08.979Z,100726.71
2018-04-17T00:15:14.765Z,100725.05
2018-04-17T00:16:20.561Z,100725.01
2018-04-17T00:17:26.326Z,100726.79
2018-04-17T00:18:32.096Z,100728.56
2018-04-17T00:19:37.862Z,100729.45
2018-04-17T00:20:44.392Z,100729.10
2018-04-17T00:21:50.249Z,100730.48
2018-04-17T00:22:56.043Z,100727.54
2018-04-17T00:24:01.671Z,100724.55
2018-04-17T00:25:07.439Z,100732.03
2018-04-17T00:26:13.263Z,100730.31
2018-04-17T00:27:18.719Z,100733.02
2018-04-17T00:28:25.804Z,100734.27
2018-04-17T00:29:31.580Z,100727.30
2018-04-17T00:30:38.136Z,100736.50
2018-04-17T00:31:44.696Z,100737.39
2018-04-17T00:32:51.339Z,100745.30
2018-04-17T00:33:57.099Z,100738.36
2018-04-17T00:35:03.619Z,100746.26
2018-04-17T00:36:09.383Z,100741.59
2018-04-17T00:37:15.167Z,100745.98
2018-04-17T00:38:20.955Z,100747.33
2018-04-17T00:39:26.730Z,100748.67
2018-04-17T00:40:33.252Z,100752.27
2018-04-17T00:41:39.018Z,100745.34
2018-04-17T00:42:45.555Z,100750.28
2018-04-17T00:43:51.151Z,100753.77
2018-04-17T00:44:56.918Z,100754.66
2018-04-17T00:46:02.894Z,100754.27
2018-04-17T00:47:08.664Z,100752.52
2018-04-17T00:48:15.194Z,100754.37
2018-04-17T00:49:22.508Z,100758.03
2018-04-17T00:50:28.302Z,100766.49
2018-04-17T00:51:34.071Z,100764.39
2018-04-17T00:52:40.606Z,100768.41
2018-04-17T00:53:54.058Z,100767.09
2018-04-17T00:55:00.620Z,100773.42
2018-04-17T00:56:07.147Z,100775.20
2018-04-17T00:57:12.915Z,100771.81
2018-04-17T00:58:18.689Z,100783.23
2018-04-17T00:59:24.459Z,100777.58
2018-04-17T01:00:30.247Z,100778.89
2018-04-17T01:01:36.913Z,100779.22
2018-04-17T01:02:43.460Z,100783.59
2018-04-17T01:03:49.240Z,100776.94
2018-04-17T01:04:55.004Z,100781.81
2018-04-17T01:06:00.825Z,100783.66
2018-04-17T01:07:06.588Z,100785.53
2018-04-17T01:08:12.151Z,100786.89
2018-04-17T01:09:17.976Z,100783.37
2018-04-17T01:10:23.749Z,100790.58
2018-04-17T01:11:29.543Z,100793.64
2018-04-17T01:12:35.435Z,100789.73
2018-04-17T01:13:41.214Z,100790.22
2018-04-17T01:14:46.972Z,100793.28
2018-04-17T01:15:52.747Z,100793.74
2018-04-17T01:16:58.545Z,100791.53
2018-04-17T01:18:04.319Z,100793.38
2018-04-17T01:19:10.088Z,100796.12
2018-04-17T01:20:15.883Z,100798.84
2018-04-17T01:21:21.670Z,100799.87
2018-04-17T01:22:27.258Z,100797.84
2018-04-17T01:23:33.029Z,100798.77
2018-04-17T01:24:38.787Z,100800.67
2018-04-17T01:25:44.569Z,100802.09
2018-04-17T01:26:50.448Z,100809.33
2018-04-17T01:27:56.244Z,100806.80
2018-04-17T01:29:02.011Z,100812.09
2018-04-17T01:30:07.810Z,100813.87
2018-04-17T01:31:14.401Z,100811.34
2018-04-17T01:32:20.168Z,100815.31
2018-04-17T01:33:25.759Z,100810.52
2018-04-17T01:34:32.299Z,100817.52
2018-04-17T01:35:38.069Z,100813.31
2018-04-17T01:36:43.923Z,100819.45
2018-04-17T01:37:49.687Z,100811.14
2018-04-17T01:38:55.513Z,100819.56
2018-04-17T01:40:01.299Z,100820.02
2018-04-17T01:41:07.079Z,100817.00
2018-04-17T01:42:13.620Z,100813.61
2018-04-17T01:43:20.154Z,100817.63
2018-04-17T01:44:25.951Z,100816.30
2018-04-17T01:45:31.739Z,100820.22
2018-04-17T01:46:37.512Z,100819.85
2018-04-17T01:47:44.047Z,100817.69
2018-04-17T01:48:49.807Z,100823.41
2018-04-17T01:49:56.379Z,100825.70
2018-04-17T01:51:02.905Z,100824.45
2018-04-17T01:52:08.669Z,100824.09
2018-04-17T01:53:14.979Z,100830.20
2018-04-17T01:54:20.771Z,100824.52
2018-04-17T01:55:26.552Z,100832.41
2018-04-17T01:56:32.323Z,100825.94
2018-04-17T01:57:38.103Z,100825.47
2018-04-17T01:58:44.652Z,100831.59
2018-04-17T01:59:50.454Z,100836.41
2018-04-17T02:00:56.243Z,100838.22
2018-04-17T02:02:02.783Z,100832.50
2018-04-17T02:03:08.880Z,100839.96
2018-04-17T02:04:14.820Z,100840.39
2018-04-17T02:05:20.669Z,100842.98
2018-04-17T02:06:26.499Z,100839.93
2018-04-17T02:07:33.027Z,100846.50
2018-04-17T02:08:38.795Z,100847.85
2018-04-17T02:09:45.327Z,100849.23
2018-04-17T02:10:51.086Z,100845.72
2018-04-17T02:11:57.657Z,100848.38
2018-04-17T02:13:04.186Z,100850.09
2018-04-17T02:14:09.955Z,100852.32
2018-04-17T02:15:16.587Z,100848.84
2018-04-17T02:16:23.122Z,100849.36
2018-04-17T02:17:28.915Z,100848.44
2018-04-17T02:18:35.451Z,100849.30
2018-04-17T02:19:41.222Z,100850.73
2018-04-17T02:20:47.754Z,100854.25
2018-04-17T02:21:53.526Z,100853.43
2018-04-17T02:23:00.084Z,100850.41
2018-04-17T02:24:06.633Z,100853.92
2018-04-17T02:25:13.176Z,100848.23
2018-04-17T02:26:18.943Z,100854.88
2018-04-17T02:27:25.479Z,100854.52
2018-04-17T02:28:30.952Z,100857.14
2018-04-17T02:29:36.719Z,100858.52
2018-04-17T02:30:42.504Z,100863.34
2018-04-17T02:31:48.274Z,100863.44
2018-04-17T02:32:55.013Z,100863.51
2018-04-17T02:34:00.808Z,100866.63
2018-04-17T02:35:06.592Z,100872.80
2018-04-17T02:36:12.353Z,100866.69
2018-04-17T02:37:18.907Z,100868.13
2018-04-17T02:38:24.686Z,100872.95
2018-04-17T02:39:30.469Z,100867.64
2018-04-17T02:40:36.239Z,100874.66
2018-04-17T02:41:42.783Z,100871.25
2018-04-17T02:42:48.605Z,100868.69
2018-04-17T02:43:54.383Z,100869.60
2018-04-17T02:45:00.944Z,100869.63
2018-04-17T02:46:07.487Z,100868.34
2018-04-17T02:47:13.260Z,100874.03
2018-04-17T02:48:19.026Z,100870.19
2018-04-17T02:49:24.794Z,100869.79
2018-04-17T02:50:30.371Z,100867.69
2018-04-17T02:51:36.908Z,100877.64
2018-04-17T02:52:42.683Z,100871.53
2018-04-17T02:53:48.464Z,100874.95
2018-04-17T02:54:54.009Z,100880.70
2018-04-17T02:55:59.805Z,100881.95
2018-04-17T02:57:05.585Z,100883.66
2018-04-17T02:58:11.347Z,100879.29
2018-04-17T02:59:17.113Z,100877.48
2018-04-17T03:00:23.806Z,100884.05
2018-04-17T03:01:29.646Z,100882.34
2018-04-17T03:02:35.425Z,100889.38
2018-04-17T03:03:41.195Z,100889.77
2018-04-17T03:04:47.775Z,100889.25
2018-04-17T03:05:54.323Z,100891.72
2018-04-17T03:07:00.920Z,100890.31
2018-04-17T03:08:06.701Z,100893.27
2018-04-17T03:09:12.475Z,100888.87
2018-04-17T03:10:19.052Z,100895.41
2018-04-17T03:11:24.846Z,100895.34
2018-04-17T03:12:30.665Z,100894.09
2018-04-17T03:13:36.471Z,100900.70
2018-04-17T03:14:42.326Z,100896.42
2018-04-17T03:15:48.100Z,100899.97
2018-04-17T03:16:53.904Z,100898.37
2018-04-17T03:17:59.701Z,100891.94
2018-04-17T03:19:05.475Z,100902.11
2018-04-17T03:20:12.029Z,100905.27
2018-04-17T03:21:18.574Z,100902.30
2018-04-17T03:22:25.851Z,100900.56
2018-04-17T03:23:31.646Z,100901.51
2018-04-17T03:24:37.420Z,100908.53
2018-04-17T03:25:44.703Z,100906.89
2018-04-17T03:26:50.475Z,100910.86
2018-04-17T03:27:57.014Z,100908.27
2018-04-17T03:29:02.840Z,100913.97
2018-04-17T03:30:08.610Z,100912.30
2018-04-17T03:31:15.150Z,100909.30
2018-04-17T03:32:20.923Z,100910.73
2018-04-17T03:33:27.247Z,100910.34
2018-04-17T03:34:32.802Z,100911.31
2018-04-17T03:35:39.347Z,100910.46
2018-04-17T03:36:45.107Z,100913.97
2018-04-17T03:37:51.899Z,100912.69
2018-04-17T03:38:57.671Z,100915.87
2018-04-17T03:40:03.471Z,100914.19
2018-04-17T03:41:10.003Z,100918.61
2018-04-17T03:42:15.771Z,100914.22
2018-04-17T03:43:22.305Z,100921.18
2018-04-17T03:44:28.075Z,100918.61
2018-04-17T03:45:33.867Z,100919.05
2018-04-17T03:46:39.294Z,100921.67
2018-04-17T03:47:45.066Z,100924.36
2018-04-17T03:48:50.834Z,100927.50
2018-04-17T03:49:56.626Z,100921.36
2018-04-17T03:51:02.428Z,100923.92
2018-04-17T03:52:08.197Z,100924.78
2018-04-17T03:53:13.983Z,100928.75
2018-04-17T03:54:19.751Z,100930.50
2018-04-17T03:55:25.577Z,100938.44
2018-04-17T03:56:32.131Z,100932.69
2018-04-17T03:57:38.677Z,100941.00
2018-04-17T03:58:46.053Z,100937.12
2018-04-17T03:59:51.819Z,100934.50
2018-04-17T04:00:58.402Z,100939.26
2018-04-17T04:02:04.299Z,100937.48
2018-04-17T04:03:10.114Z,100939.23
2018-04-17T04:04:15.944Z,100944.58
2018-04-17T04:05:21.750Z,100951.51
2018-04-17T04:06:27.561Z,100951.05
2018-04-17T04:07:33.364Z,100948.39
2018-04-17T04:08:39.134Z,100953.65
2018-04-17T04:09:45.183Z,100953.65
2018-04-17T04:10:50.948Z,100951.39
2018-04-17T04:11:56.734Z,100958.78
2018-04-17T04:13:02.519Z,100948.21
2018-04-17T04:14:08.282Z,100950.84
2018-04-17T04:15:14.059Z,100956.61
2018-04-17T04:16:36.565Z,100958.38
2018-04-17T04:19:41.956Z,100967.78
2018-04-17T04:21:04.687Z,100967.02
2018-04-17T04:22:27.231Z,100975.90
2018-04-17T04:23:49.929Z,100975.13
2018-04-17T04:26:47.003Z,100979.01
2018-04-17T04:27:53.916Z,100976.72
2018-04-17T04:28:59.731Z,100979.23
2018-04-17T04:30:04.891Z,100981.92
2018-04-17T04:31:10.663Z,100982.29
2018-04-17T04:32:16.979Z,100981.71
2018-04-17T04:33:22.742Z,100984.25
2018-04-17T04:34:28.306Z,100988.11
2018-04-17T04:35:34.838Z,100982.76
2018-04-17T04:36:40.612Z,100986.64
2018-04-17T04:37:46.472Z,100985.27
2018-04-17T04:38:52.260Z,100989.55
2018-04-17T04:39:58.048Z,100990.34
2018-04-17T04:41:03.825Z,100995.11
2018-04-17T04:42:09.575Z,100988.00
2018-04-17T04:43:15.346Z,100993.63
2018-04-17T04:44:21.871Z,101000.59
2018-04-17T04:45:27.654Z,101002.23
2018-04-17T04:46:34.221Z,100999.52
2018-04-17T04:47:40.744Z,101003.80
2018-04-17T04:48:47.288Z,101005.02
2018-04-17T04:49:53.057Z,101013.22
2018-04-17T04:50:58.639Z,101008.78
2018-04-17T04:52:04.428Z,101017.44
2018-04-17T04:53:11.247Z,101013.77
2018-04-17T04:54:17.021Z,101008.48
2018-04-17T04:55:22.808Z,101023.22
2018-04-17T04:56:29.387Z,101016.52
2018-04-17T04:57:35.151Z,101019.42
2018-04-17T04:58:40.939Z,101019.27
2018-04-17T04:59:46.701Z,101020.47
2018-04-17T05:00:53.233Z,101029.06
2018-04-17T05:01:59.043Z,101024.95
2018-04-17T05:03:04.859Z,101025.59
2018-04-17T05:04:10.656Z,101024.98
2018-04-17T05:05:17.948Z,101029.20
2018-04-17T05:06:24.494Z,101022.50
2018-04-17T05:07:31.199Z,101031.98
2018-04-17T05:08:36.988Z,101030.94
2018-04-17T05:09:42.814Z,101034.76
2018-04-17T05:10:48.593Z,101038.55
2018-04-17T05:11:55.193Z,101035.33
2018-04-17T05:13:01.887Z,101038.30
2018-04-17T05:14:07.496Z,101044.25
2018-04-17T05:15:13.278Z,101046.27
2018-04-17T05:16:18.873Z,101053.15
2018-04-17T05:17:24.645Z,101050.81
2018-04-17T05:18:30.498Z,101060.30
2018-04-17T05:19:36.504Z,101062.77
2018-04-17T05:20:42.280Z,101062.64
2018-04-17T05:21:48.060Z,101061.07
2018-04-17T05:22:54.998Z,101067.82
2018-04-17T05:24:00.803Z,101075.00
2018-04-17T05:25:06.603Z,101074.31
2018-04-17T05:26:12.683Z,101077.48
2018-04-17T05:27:19.224Z,101071.82
2018-04-17T05:28:24.997Z,101081.04
2018-04-17T05:29:31.592Z,101075.73
2018-04-17T05:30:38.173Z,101085.38
2018-04-17T05:31:44.801Z,101084.91
2018-04-17T05:32:50.559Z,101086.58
2018-04-17T05:33:56.314Z,101090.45
2018-04-17T05:35:02.104Z,101087.93
2018-04-17T05:36:08.657Z,101094.20
2018-04-17T05:37:15.184Z,101099.96
2018-04-17T05:38:20.962Z,101102.35
2018-04-17T05:39:27.492Z,101103.25
2018-04-17T05:40:33.304Z,101104.25
2018-04-17T05:41:39.071Z,101102.13
2018-04-17T05:42:44.843Z,101103.52
2018-04-17T05:43:50.600Z,101101.13
2018-04-17T05:44:57.132Z,101105.08
2018-04-17T05:46:02.922Z,101102.91
2018-04-17T05:47:08.711Z,101104.50
2018-04-17T05:48:14.484Z,101102.98
2018-04-17T05:49:20.678Z,101106.12
2018-04-17T05:50:26.436Z,101116.81
2018-04-17T05:51:32.224Z,101108.03
2018-04-17T05:52:37.995Z,101123.30
2018-04-17T05:53:43.759Z,101112.17
2018-04-17T05:54:49.540Z,101120.84
2018-04-17T05:55:56.123Z,101120.59
2018-04-17T05:57:02.112Z,101124.77
2018-04-17T05:58:07.888Z,101127.95
2018-04-17T05:59:14.503Z,101133.69
2018-04-17T06:00:20.260Z,101128.41
2018-04-17T06:01:25.796Z,101135.83
2018-04-17T06:02:31.054Z,101133.66
2018-04-17T06:03:37.623Z,101130.98
2018-04-17T06:04:43.404Z,101134.66
2018-04-17T06:05:49.695Z,101133.88
2018-04-17T06:06:55.461Z,101143.58
2018-04-17T06:08:02.042Z,101136.05
2018-04-17T06:09:07.166Z,101136.86
2018-04-17T06:10:12.951Z,101149.53
2018-04-17T06:11:19.475Z,101143.45
2018-04-17T06:12:25.243Z,101148.38
2018-04-17T06:13:31.380Z,101148.36
2018-04-17T06:14:36.922Z,101148.02
2018-04-17T06:15:42.697Z,101149.75
2018-04-17T06:16:48.465Z,101153.34
2018-04-17T06:17:54.999Z,101154.09
2018-04-17T06:19:02.295Z,101158.42
2018-04-17T06:20:08.819Z,101158.03
2018-04-17T06:21:14.591Z,101159.47
2018-04-17T06:22:21.118Z,101158.43
2018-04-17T06:23:26.893Z,101165.01
2018-04-17T06:24:33.464Z,101166.33
2018-04-17T06:25:40.039Z,101165.24
2018-04-17T06:26:45.812Z,101171.22
2018-04-17T06:27:51.591Z,101170.09
2018-04-17T06:28:58.130Z,101172.66
2018-04-17T06:30:03.687Z,101174.48
2018-04-17T06:31:10.227Z,101171.05
2018-04-17T06:32:16.002Z,101178.80
2018-04-17T06:33:22.538Z,101178.37
2018-04-17T06:34:29.813Z,101182.53
2018-04-17T06:35:35.651Z,101177.23
2018-04-17T06:36:42.178Z,101184.39
2018-04-17T06:37:47.959Z,101181.81
2018-04-17T06:38:53.739Z,101180.72
2018-04-17T06:39:59.505Z,101187.94
2018-04-17T06:41:05.299Z,101191.16
2018-04-17T06:42:11.888Z,101189.98
2018-04-17T06:43:17.732Z,101192.22
2018-04-17T06:44:23.708Z,101188.43
2018-04-17T06:45:29.481Z,101188.41
2018-04-17T06:46:35.365Z,101194.70
2018-04-17T06:47:41.219Z,101196.55
2018-04-17T06:48:47.133Z,101196.65
2018-04-17T06:49:53.671Z,101204.08
2018-04-17T06:50:59.455Z,101206.53
2018-04-17T06:52:05.230Z,101202.87
2018-04-17T06:53:11.040Z,101204.12
2018-04-17T06:54:17.581Z,101205.25
2018-04-17T06:55:24.119Z,101201.88
2018-04-17T06:56:29.900Z,101206.87
2018-04-17T06:57:36.455Z,101208.70
2018-04-17T06:58:42.216Z,101209.56
2018-04-17T06:59:47.976Z,101210.66
2018-04-17T07:00:53.751Z,101211.85
2018-04-17T07:02:00.283Z,101209.84
2018-04-17T07:03:06.089Z,101210.92
2018-04-17T07:04:11.857Z,101218.92
2018-04-17T07:05:17.654Z,101218.41
2018-04-17T07:06:23.616Z,101217.59
2018-04-17T07:07:29.379Z,101214.16
2018-04-17T07:08:35.184Z,101213.84
2018-04-17T07:09:41.048Z,101218.86
2018-04-17T07:10:46.812Z,101224.20
2018-04-17T07:11:52.583Z,101225.19
2018-04-17T07:12:58.355Z,101222.55
2018-04-17T07:14:05.368Z,101225.62
2018-04-17T07:15:10.988Z,101226.39
2018-04-17T07:16:17.444Z,101225.03
2018-04-17T07:17:23.659Z,101226.96
2018-04-17T07:18:30.211Z,101231.17
2018-04-17T07:19:36.007Z,101231.88
2018-04-17T07:20:42.593Z,101232.05
2018-04-17T07:21:48.377Z,101234.44
2018-04-17T07:22:54.711Z,101234.89
2018-04-17T07:24:00.712Z,101240.65
2018-04-17T07:25:06.501Z,101237.37
2018-04-17T07:26:12.502Z,101244.10
2018-04-17T07:27:18.266Z,101246.80
2018-04-17T07:28:23.714Z,101245.28
2018-04-17T07:29:29.502Z,101250.09
2018-04-17T07:30:35.494Z,101254.30
2018-04-17T07:31:41.267Z,101250.84
2018-04-17T07:32:47.811Z,101255.00
2018-04-17T07:33:55.140Z,101251.01
2018-04-17T07:35:01.057Z,101255.22
2018-04-17T07:36:07.102Z,101253.63
2018-04-17T07:37:12.875Z,101251.67
2018-04-17T07:38:18.663Z,101248.52
2018-04-17T07:39:24.434Z,101248.22
2018-04-17T07:40:31.011Z,101254.38
2018-04-17T07:41:36.986Z,101252.55
2018-04-17T07:42:42.752Z,101252.63
2018-04-17T07:43:48.532Z,101254.94
2018-04-17T07:44:55.068Z,101254.28
2018-04-17T07:46:01.067Z,101251.44
2018-04-17T07:47:30.934Z,101257.66
2018-04-17T07:48:50.377Z,101259.22
2018-04-17T07:49:56.194Z,101262.34
2018-04-17T07:51:01.964Z,101265.95
2018-04-17T07:52:07.737Z,101265.39
2018-04-17T07:53:14.302Z,101267.30
2018-04-17T07:54:20.836Z,101267.14
2018-04-17T07:55:26.617Z,101266.94
2018-04-17T07:56:32.393Z,101266.47
2018-04-17T07:57:38.171Z,101265.78
2018-04-17T07:58:44.788Z,101264.54
2018-04-17T07:59:50.558Z,101265.16
2018-04-17T08:00:57.834Z,101266.64
2018-04-17T08:02:03.621Z,101260.08
2018-04-17T08:03:09.438Z,101270.66
2018-04-17T08:04:15.255Z,101264.99
2018-04-17T08:05:21.039Z,101263.87
2018-04-17T08:06:26.806Z,101268.84
2018-04-17T08:07:32.583Z,101268.36
2018-04-17T08:08:38.360Z,101264.22
2018-04-17T08:09:44.155Z,101266.88
2018-04-17T08:10:49.934Z,101278.91
2018-04-17T08:11:56.521Z,101273.03
2018-04-17T08:13:02.455Z,101275.98
2018-04-17T08:14:08.308Z,101269.24
2018-04-17T08:15:14.115Z,101267.65
2018-04-17T08:16:20.660Z,101278.41
2018-04-17T08:17:26.426Z,101271.20
2018-04-17T08:18:32.644Z,101277.40
2018-04-17T08:19:38.421Z,101277.20
2018-04-17T08:20:44.988Z,101278.77
2018-04-17T08:21:51.535Z,101282.13
2018-04-17T08:22:58.130Z,101281.00
2018-04-17T08:24:03.899Z,101274.58
2018-04-17T08:25:09.717Z,101274.89
2018-04-17T08:26:15.508Z,101273.70
2018-04-17T08:27:21.276Z,101271.17
2018-04-17T08:28:27.822Z,101275.38
2018-04-17T08:29:34.381Z,101270.94
2018-04-17T08:30:40.923Z,101272.30
2018-04-17T08:31:46.723Z,101273.98
2018-04-17T08:32:52.494Z,101265.20
2018-04-17T08:33:58.280Z,101273.13
2018-04-17T08:35:04.824Z,101262.59
2018-04-17T08:36:10.609Z,101268.25
2018-04-17T08:37:16.396Z,101268.09
2018-04-17T08:38:22.186Z,101262.89
2018-04-17T08:39:27.963Z,101271.28
2018-04-17T08:40:33.732Z,101277.86
2018-04-17T08:41:39.512Z,101273.69
2018-04-17T08:42:45.379Z,101274.00
2018-04-17T08:43:51.309Z,101275.95
2018-04-17T08:44:57.080Z,101273.24
2018-04-17T08:46:02.857Z,101272.97
2018-04-17T08:47:09.413Z,101275.22
2018-04-17T08:48:15.194Z,101279.31
2018-04-17T08:49:20.957Z,101277.94
2018-04-17T08:50:26.707Z,101278.64
2018-04-17T08:51:32.680Z,101277.98
2018-04-17T08:52:38.452Z,101276.95
2018-04-17T08:53:44.266Z,101275.16
2018-04-17T08:54:50.057Z,101277.71
2018-04-17T08:55:55.812Z,101277.92
2018-04-17T08:57:01.591Z,101277.44
2018-04-17T08:58:07.360Z,101278.28
2018-04-17T08:59:13.910Z,101274.78
2018-04-17T09:00:20.498Z,101281.83
2018-04-17T09:01:26.262Z,101280.03
2018-04-17T09:02:32.081Z,101279.00
2018-04-17T09:03:37.834Z,101283.71
2018-04-17T09:04:43.669Z,101283.34
2018-04-17T09:05:50.382Z,101283.30
2018-04-17T09:06:55.901Z,101281.59
2018-04-17T09:08:01.663Z,101281.66
2018-04-17T09:09:06.528Z,101280.36
2018-04-17T09:10:12.316Z,101282.84
2018-04-17T09:11:18.093Z,101279.13
2018-04-17T09:12:24.404Z,101278.27
2018-04-17T09:13:30.220Z,101283.98
2018-04-17T09:14:35.963Z,101280.40
2018-04-17T09:15:41.755Z,101281.81
2018-04-17T09:16:47.503Z,101281.56
2018-04-17T09:17:53.578Z,101282.91
2018-04-17T09:18:59.328Z,101281.42
2018-04-17T09:20:05.330Z,101280.53
2018-04-17T09:21:11.428Z,101281.36
2018-04-17T09:22:17.182Z,101284.02
2018-04-17T09:23:22.709Z,101276.99
2018-04-17T09:24:28.454Z,101279.17
2018-04-17T09:25:34.215Z,101282.53
2018-04-17T09:26:40.003Z,101279.97
2018-04-17T09:27:46.524Z,101283.09
2018-04-17T09:28:52.262Z,101282.94
2018-04-17T09:29:58.341Z,101285.91
2018-04-17T09:31:04.091Z,101283.36
2018-04-17T09:32:09.889Z,101287.77
2018-04-17T09:33:15.726Z,101287.36
2018-04-17T09:34:21.632Z,101286.12
2018-04-17T09:35:28.151Z,101287.95
2018-04-17T09:36:33.907Z,101284.80
2018-04-17T09:37:39.683Z,101286.64
2018-04-17T09:38:45.444Z,101286.17
2018-04-17T09:39:51.043Z,101283.20
2018-04-17T09:40:57.567Z,101288.05
2018-04-17T09:42:03.323Z,101288.04
2018-04-17T09:43:09.108Z,101291.14
2018-04-17T09:44:14.950Z,101296.09
2018-04-17T09:45:21.511Z,101292.17
2018-04-17T09:46:27.271Z,101296.39
2018-04-17T09:47:33.295Z,101296.95
2018-04-17T09:48:40.338Z,101295.03
2018-04-17T09:49:46.080Z,101299.98
2018-04-17T09:50:51.841Z,101303.86
2018-04-17T09:51:58.369Z,101303.70
2018-04-17T09:53:04.110Z,101295.85
2018-04-17T09:54:09.884Z,101299.36
2018-04-17T09:55:16.399Z,101296.97
2018-04-17T09:56:22.176Z,101299.69
2018-04-17T09:57:27.595Z,101292.95
2018-04-17T09:58:34.161Z,101291.16
2018-04-17T09:59:39.696Z,101298.75
2018-04-17T10:00:50.738Z,101305.88
2018-04-17T10:01:56.522Z,101294.78
2018-04-17T10:03:03.050Z,101298.54
2018-04-17T10:04:08.807Z,101298.98
2018-04-17T10:05:14.600Z,101294.75
2018-04-17T10:06:20.364Z,101292.31
2018-04-17T10:07:26.164Z,101294.94
2018-04-17T10:08:31.921Z,101293.20
2018-04-17T10:09:37.687Z,101295.23
2018-04-17T10:10:43.480Z,101294.69
2018-04-17T10:11:50.223Z,101287.13
2018-04-17T10:12:56.000Z,101284.33
2018-04-17T10:14:01.754Z,101285.00
2018-04-17T10:15:07.495Z,101294.70
2018-04-17T10:16:13.292Z,101284.73
2018-04-17T10:17:19.816Z,101287.23
2018-04-17T10:18:25.578Z,101288.36
2018-04-17T10:19:31.330Z,101282.50
2018-04-17T10:20:37.087Z,101283.61
2018-04-17T10:21:43.398Z,101274.03
2018-04-17T10:22:49.166Z,101287.08
2018-04-17T10:23:54.947Z,101282.70
2018-04-17T10:25:00.711Z,101289.22
2018-04-17T10:26:06.466Z,101286.73
2018-04-17T10:27:12.030Z,101297.53
2018-04-17T10:28:17.804Z,101290.28
2018-04-17T10:29:23.568Z,101292.08
2018-04-17T10:30:29.335Z,101295.96
2018-04-17T10:31:34.868Z,101292.10
2018-04-17T10:32:40.663Z,101288.89
2018-04-17T10:33:46.416Z,101291.55
2018-04-17T10:34:52.284Z,101283.38
2018-04-17T10:35:58.051Z,101285.91
2018-04-17T10:37:03.834Z,101288.31
2018-04-17T10:38:09.630Z,101284.39
2018-04-17T10:39:15.398Z,101288.55
2018-04-17T10:40:21.699Z,101279.94
2018-04-17T10:41:27.475Z,101282.05
2018-04-17T10:42:33.370Z,101280.38
2018-04-17T10:43:39.171Z,101278.72
2018-04-17T10:44:44.935Z,101284.70
2018-04-17T10:45:51.504Z,101288.63
2018-04-17T10:46:57.275Z,101281.86
2018-04-17T10:48:03.051Z,101284.21
2018-04-17T10:49:08.847Z,101281.09
2018-04-17T10:50:14.619Z,101276.35
2018-04-17T10:51:21.160Z,101286.02
2018-04-17T10:52:26.964Z,101278.13
2018-04-17T10:53:32.816Z,101281.84
2018-04-17T10:54:38.611Z,101280.99
2018-04-17T10:55:45.157Z,101279.07
2018-04-17T10:56:50.928Z,101275.62
2018-04-17T10:57:56.714Z,101272.78
2018-04-17T10:59:02.476Z,101279.30
2018-04-17T11:00:08.040Z,101272.54
2018-04-17T11:01:13.806Z,101271.33
2018-04-17T11:02:20.343Z,101274.79
2018-04-17T11:03:26.111Z,101272.73
2018-04-17T11:04:32.639Z,101269.25
2018-04-17T11:05:38.431Z,101266.92
2018-04-17T11:06:44.198Z,101268.49
2018-04-17T11:07:49.988Z,101269.41
2018-04-17T11:08:55.854Z,101265.28
2018-04-17T11:10:01.611Z,101266.61
2018-04-17T11:11:07.396Z,101265.69
2018-04-17T11:12:12.977Z,101273.52
2018-04-17T11:13:19.598Z,101270.06
2018-04-17T11:14:25.368Z,101273.30
2018-04-17T11:15:31.142Z,101266.19
2018-04-17T11:16:36.951Z,101268.16
2018-04-17T11:17:43.483Z,101264.73
2018-04-17T11:18:49.253Z,101263.86
2018-04-17T11:19:55.781Z,101268.61
2018-04-17T11:21:01.547Z,101264.34
2018-04-17T11:22:08.123Z,101265.52
2018-04-17T11:23:13.959Z,101269.12
2018-04-17T11:24:19.887Z,101271.08
2018-04-17T11:25:26.419Z,101271.57
2018-04-17T11:26:32.190Z,101262.98
2018-04-17T11:27:38.754Z,101265.62
2018-04-17T11:28:45.299Z,101268.98
2018-04-17T11:29:50.880Z,101271.66
2018-04-17T11:30:56.661Z,101274.28
2018-04-17T11:32:02.439Z,101272.41
2018-04-17T11:33:09.024Z,101267.77
2018-04-17T11:34:14.802Z,101271.53
2018-04-17T11:35:20.659Z,101268.16
2018-04-17T11:36:26.432Z,101267.82
2018-04-17T11:37:32.968Z,101270.68
2018-04-17T11:38:38.775Z,101269.44
2018-04-17T11:39:44.230Z,101265.59
2018-04-17T11:40:49.999Z,101270.09
2018-04-17T11:41:56.558Z,101270.06
2018-04-17T11:43:03.130Z,101273.06
2018-04-17T11:44:09.102Z,101273.53
2018-04-17T11:45:14.906Z,101272.89
2018-04-17T11:46:20.665Z,101271.42
2018-04-17T11:47:26.446Z,101275.22
2018-04-17T11:48:32.240Z,101272.70
2018-04-17T11:49:38.791Z,101277.67
2018-04-17T11:50:45.130Z,101274.20
2018-04-17T11:51:50.907Z,101268.27
2018-04-17T11:52:57.439Z,101274.44
2018-04-17T11:54:03.227Z,101273.29
2018-04-17T11:55:09.372Z,101272.09
2018-04-17T11:56:15.143Z,101274.48
2018-04-17T11:57:20.913Z,101271.55
2018-04-17T11:58:26.682Z,101272.84
2018-04-17T11:59:32.234Z,101278.94
2018-04-17T12:00:38.031Z,101279.22
2018-04-17T12:01:44.847Z,101282.53
2018-04-17T12:02:50.629Z,101282.34
2018-04-17T12:03:56.176Z,101280.27
2018-04-17T12:05:02.755Z,101282.13
2018-04-17T12:06:09.315Z,101280.94
2018-04-17T12:07:15.858Z,101279.00
2018-04-17T12:08:21.399Z,101279.95
2018-04-17T12:09:27.236Z,101284.44
2018-04-17T12:10:32.784Z,101278.23
2018-04-17T12:11:38.577Z,101280.45
2018-04-17T12:12:44.123Z,101281.55
2018-04-17T12:13:49.669Z,101277.76
2018-04-17T12:14:55.442Z,101275.56
2018-04-17T12:16:01.751Z,101277.83
2018-04-17T12:17:07.544Z,101278.47
2018-04-17T12:18:14.139Z,101278.56
2018-04-17T12:19:20.140Z,101277.70
2018-04-17T12:20:26.076Z,101280.98
2018-04-17T12:21:32.001Z,101278.09
2018-04-17T12:22:37.789Z,101277.61
2018-04-17T12:23:44.348Z,101276.22
2018-04-17T12:24:50.900Z,101283.00
2018-04-17T12:25:57.446Z,101277.66
2018-04-17T12:27:03.243Z,101278.20
2018-04-17T12:28:09.050Z,101280.40
2018-04-17T12:29:15.584Z,101281.49
2018-04-17T12:30:22.131Z,101276.36
2018-04-17T12:31:27.912Z,101281.13
2018-04-17T12:32:34.526Z,101277.12
2018-04-17T12:33:40.405Z,101279.27
2018-04-17T12:34:46.188Z,101276.91
2018-04-17T12:35:51.955Z,101273.80
2018-04-17T12:36:57.733Z,101272.89
2018-04-17T12:38:03.543Z,101272.59
2018-04-17T12:39:09.328Z,101275.50